Time;durP1;ratioP1;P1;durP2;ratioP2;P2;SDS_P1;SDS_P2;PMS_P1;PMS_P2;Temp;Humidity;BMP_temperature;BMP_pressure;BME280_temperature;BME280_humidity;BME280_pressure;Samples;Min_cycle;Max_cycle;Signal;HPM_P1;HPM_P2
2023/05/29 00:00:29;;;;;;;9.05;3.00;;;13.60;99.90;;;;;;5055097;28;20271;-92
2023/05/29 00:02:55;;;;;;;9.52;3.10;;;13.60;99.90;;;;;;5053880;28;20173;-93
2023/05/29 00:05:20;;;;;;;5.30;2.30;;;13.70;99.90;;;;;;5055312;28;20253;-93
2023/05/29 00:07:47;;;;;;;5.25;2.58;;;13.70;99.90;;;;;;5054017;28;20205;-93
2023/05/29 00:10:12;;;;;;;5.60;3.00;;;13.60;99.90;;;;;;5053562;28;20185;-93
2023/05/29 00:12:39;;;;;;;7.47;3.10;;;13.60;99.90;;;;;;5053500;28;20174;-93
2023/05/29 00:15:06;;;;;;;7.38;3.38;;;13.60;99.90;;;;;;5054727;28;20677;-94
2023/05/29 00:17:32;;;;;;;7.78;3.20;;;13.50;99.90;;;;;;5053065;28;20261;-92
2023/05/29 00:19:58;;;;;;;4.78;2.50;;;13.50;99.90;;;;;;5054474;28;20181;-94
2023/05/29 00:22:25;;;;;;;7.53;2.85;;;13.50;99.90;;;;;;5053688;28;20182;-93
2023/05/29 00:24:52;;;;;;;5.32;2.85;;;13.40;99.90;;;;;;5054944;28;20162;-93
2023/05/29 00:27:18;;;;;;;4.28;2.65;;;13.40;99.90;;;;;;5053741;28;20221;-93
2023/05/29 00:29:43;;;;;;;6.65;3.20;;;13.50;99.90;;;;;;5053820;28;20383;-93
2023/05/29 00:32:37;;;;;;;7.10;2.53;;;13.40;99.90;;;;;;5053861;28;20173;-93
2023/05/29 00:35:03;;;;;;;7.10;2.83;;;13.30;99.90;;;;;;5053781;28;20197;-93
2023/05/29 00:37:29;;;;;;;4.90;3.08;;;13.20;99.90;;;;;;5054795;28;20174;-93
2023/05/29 00:39:54;;;;;;;4.13;2.45;;;13.20;99.90;;;;;;5053239;28;20516;-93
2023/05/29 00:42:26;;;;;;;8.18;3.17;;;13.10;99.90;;;;;;5054772;28;20174;-90
2023/05/29 00:44:52;;;;;;;6.68;2.70;;;13.00;99.90;;;;;;5055944;28;20174;-95
2023/05/29 00:47:19;;;;;;;5.07;2.92;;;12.90;99.90;;;;;;5058894;28;20178;-92
2023/05/29 00:49:45;;;;;;;4.55;2.70;;;12.90;99.90;;;;;;5056876;28;20186;-93
2023/05/29 00:52:11;;;;;;;4.68;2.88;;;12.90;99.90;;;;;;5056634;28;20269;-93
2023/05/29 00:54:37;;;;;;;4.97;2.65;;;12.90;99.90;;;;;;5056994;28;20181;-92
2023/05/29 00:57:04;;;;;;;5.07;3.00;;;12.80;99.90;;;;;;5058970;28;20170;-93
2023/05/29 00:59:32;;;;;;;5.65;2.90;;;12.80;99.90;;;;;;5057428;28;20177;-92
2023/05/29 01:02:06;;;;;;;4.07;2.70;;;12.70;99.90;;;;;;5058513;28;20178;-93
2023/05/29 01:04:35;;;;;;;5.57;2.92;;;12.70;99.90;;;;;;5057022;28;20185;-92
2023/05/29 01:07:04;;;;;;;3.78;2.58;;;12.70;99.90;;;;;;5058407;28;20178;-92
2023/05/29 01:09:31;;;;;;;4.88;2.92;;;12.70;99.90;;;;;;5058044;28;20186;-92
2023/05/29 01:12:35;;;;;;;4.40;2.80;;;12.70;99.90;;;;;;5057053;28;20173;-92
2023/05/29 01:15:50;;;;;;;5.03;2.72;;;12.60;99.90;;;;;;5056976;28;20590;-94
2023/05/29 01:18:23;;;;;;;3.80;2.60;;;12.50;99.90;;;;;;5043259;28;20190;-93
2023/05/29 01:21:03;;;;;;;4.95;2.63;;;12.40;99.90;;;;;;5058152;28;20174;-92
2023/05/29 01:24:00;;;;;;;4.65;2.60;;;12.30;99.90;;;;;;5057738;28;20169;-92
2023/05/29 01:26:44;;;;;;;5.97;2.88;;;12.20;99.90;;;;;;5056851;28;20181;-93
2023/05/29 01:29:15;;;;;;;5.15;2.63;;;12.20;99.90;;;;;;5056770;28;20209;-89
2023/05/29 01:31:43;;;;;;;6.97;2.50;;;12.20;99.90;;;;;;5057787;28;20169;-93
2023/05/29 01:34:09;;;;;;;4.95;2.50;;;12.00;99.90;;;;;;5056675;28;20235;-92
2023/05/29 01:36:36;;;;;;;5.63;2.33;;;11.90;99.90;;;;;;5056626;28;20174;-92
2023/05/29 01:39:02;;;;;;;4.90;2.70;;;11.90;99.90;;;;;;5056441;28;20231;-92
2023/05/29 01:41:29;;;;;;;3.85;2.42;;;11.80;99.90;;;;;;5057412;28;20215;-92
2023/05/29 01:44:07;;;;;;;3.60;2.70;;;11.80;99.90;;;;;;5056346;28;20261;-92
2023/05/29 01:46:35;;;;;;;2.80;2.50;;;11.80;99.90;;;;;;5056372;28;20268;-93
2023/05/29 01:49:02;;;;;;;4.05;2.42;;;11.80;99.90;;;;;;5057333;28;20206;-93
2023/05/29 01:53:59;;;;;;;4.18;2.72;;;12.00;99.90;;;;;;5013054;28;20653;-83
2023/05/29 01:56:27;;;;;;;5.95;2.65;;;12.10;99.90;;;;;;5014790;28;20179;-83
2023/05/29 01:58:56;;;;;;;4.60;2.63;;;12.10;99.90;;;;;;5014891;28;20198;-83
2023/05/29 02:01:23;;;;;;;3.97;2.58;;;12.10;99.90;;;;;;5015850;28;20183;-83
2023/05/29 02:03:49;;;;;;;6.88;3.00;;;12.20;99.90;;;;;;5016037;28;20177;-83
2023/05/29 02:06:15;;;;;;;3.53;2.55;;;12.10;99.90;;;;;;5016249;28;20530;-84
2023/05/29 02:08:41;;;;;;;5.63;2.58;;;12.10;99.90;;;;;;5015761;28;20218;-83
2023/05/29 02:11:06;;;;;;;5.00;2.80;;;12.10;99.90;;;;;;5014727;28;20175;-84
2023/05/29 02:13:32;;;;;;;4.50;2.55;;;12.00;99.90;;;;;;5014354;28;20185;-82
2023/05/29 02:15:58;;;;;;;4.28;2.85;;;12.00;99.90;;;;;;5015992;28;20364;-83
2023/05/29 02:18:24;;;;;;;3.92;2.38;;;12.00;99.90;;;;;;5014789;28;20194;-83
2023/05/29 02:20:49;;;;;;;4.60;2.80;;;12.00;99.90;;;;;;5015811;28;20178;-83
2023/05/29 02:23:15;;;;;;;4.68;2.70;;;12.00;99.90;;;;;;5013835;28;20250;-83
2023/05/29 02:25:41;;;;;;;4.13;2.85;;;12.00;99.90;;;;;;5014493;28;20175;-83
2023/05/29 02:28:07;;;;;;;4.95;2.58;;;11.90;99.90;;;;;;5015447;28;20213;-83
2023/05/29 02:30:34;;;;;;;3.85;2.67;;;11.90;99.90;;;;;;5014518;28;20180;-84
2023/05/29 02:33:00;;;;;;;4.50;2.80;;;11.90;99.90;;;;;;5014217;28;20183;-83
2023/05/29 02:35:26;;;;;;;4.60;2.60;;;11.90;99.90;;;;;;5015583;28;20595;-83
2023/05/29 02:37:52;;;;;;;6.38;2.33;;;11.70;99.90;;;;;;5015553;28;20606;-83
2023/05/29 02:40:18;;;;;;;7.75;2.90;;;11.70;99.90;;;;;;5014199;28;20187;-83
2023/05/29 02:42:45;;;;;;;3.70;2.85;;;11.60;99.90;;;;;;5013961;28;20183;-83
2023/05/29 02:45:11;;;;;;;5.88;2.97;;;11.50;99.90;;;;;;5014057;28;20179;-83
2023/05/29 02:47:37;;;;;;;5.85;2.80;;;11.50;99.90;;;;;;5014101;28;20203;-84
2023/05/29 02:50:04;;;;;;;3.90;2.60;;;11.50;99.90;;;;;;5015411;28;20175;-83
2023/05/29 02:52:31;;;;;;;5.22;3.10;;;11.50;99.90;;;;;;5014671;28;20277;-84
2023/05/29 02:54:58;;;;;;;5.25;2.80;;;11.50;99.90;;;;;;5015051;28;20207;-83
2023/05/29 02:57:24;;;;;;;5.43;2.67;;;11.50;99.90;;;;;;5014979;28;20507;-83
2023/05/29 02:59:51;;;;;;;4.35;2.70;;;11.50;99.90;;;;;;5013884;28;20241;-83
2023/05/29 03:02:17;;;;;;;4.45;2.50;;;11.50;99.90;;;;;;5013763;28;20270;-84
2023/05/29 03:04:45;;;;;;;6.28;2.80;;;11.40;99.90;;;;;;5014985;28;20202;-83
2023/05/29 03:07:10;;;;;;;4.20;2.63;;;11.40;99.90;;;;;;5014297;28;20165;-83
2023/05/29 03:09:36;;;;;;;7.25;2.80;;;11.30;99.90;;;;;;5013508;28;20274;-83
2023/05/29 03:12:03;;;;;;;7.90;3.25;;;11.30;99.90;;;;;;5013433;28;20190;-83
2023/05/29 03:14:28;;;;;;;4.43;2.63;;;11.30;99.90;;;;;;5013748;28;20555;-84
2023/05/29 03:16:55;;;;;;;4.10;2.50;;;11.20;99.90;;;;;;5013621;28;20206;-85
2023/05/29 03:19:20;;;;;;;5.20;2.88;;;11.20;99.90;;;;;;5013480;28;20688;-84
2023/05/29 03:21:46;;;;;;;4.78;2.80;;;11.30;99.90;;;;;;5014599;28;20179;-84
2023/05/29 03:24:15;;;;;;;4.55;2.75;;;11.20;99.90;;;;;;5014656;28;20179;-84
2023/05/29 03:26:42;;;;;;;3.97;2.38;;;11.20;99.90;;;;;;5013460;28;20670;-84
2023/05/29 03:29:07;;;;;;;5.65;2.80;;;11.10;99.90;;;;;;5014551;28;20207;-84
2023/05/29 03:31:33;;;;;;;6.50;3.05;;;11.20;99.90;;;;;;5013189;28;20175;-84
2023/05/29 03:33:59;;;;;;;4.13;2.78;;;11.30;99.90;;;;;;5014757;28;20175;-85
2023/05/29 03:36:26;;;;;;;5.80;3.17;;;11.20;99.90;;;;;;5013251;28;20179;-84
2023/05/29 03:38:52;;;;;;;6.63;3.00;;;11.20;99.90;;;;;;5012144;28;20179;-84
2023/05/29 03:41:18;;;;;;;4.13;2.40;;;11.20;99.90;;;;;;5014262;28;20190;-84
2023/05/29 03:43:43;;;;;;;3.10;2.60;;;11.20;99.90;;;;;;5013022;28;20179;-84
2023/05/29 03:46:09;;;;;;;5.22;2.63;;;11.20;99.90;;;;;;5013046;28;20602;-84
2023/05/29 03:48:35;;;;;;;4.97;2.72;;;11.10;99.90;;;;;;5013310;28;20215;-84
2023/05/29 03:51:01;;;;;;;3.88;2.75;;;11.10;99.90;;;;;;5014325;28;20242;-84
2023/05/29 03:53:26;;;;;;;4.85;2.85;;;11.30;99.90;;;;;;5013561;28;20231;-84
2023/05/29 03:55:52;;;;;;;4.53;2.60;;;11.40;99.90;;;;;;5012863;28;20231;-84
2023/05/29 03:58:18;;;;;;;4.25;2.45;;;11.50;99.90;;;;;;5013078;28;20233;-84
2023/05/29 04:00:43;;;;;;;3.22;2.60;;;11.50;99.90;;;;;;5012833;28;20526;-84
2023/05/29 04:03:09;;;;;;;4.90;2.65;;;11.50;99.90;;;;;;5014122;28;20194;-84
2023/05/29 04:05:35;;;;;;;6.97;2.90;;;11.60;99.90;;;;;;5012751;28;20237;-84
2023/05/29 04:08:04;;;;;;;6.13;2.72;;;11.70;99.90;;;;;;5013637;28;20755;-84
2023/05/29 04:10:33;;;;;;;6.30;2.78;;;11.70;99.90;;;;;;5013989;28;20164;-84
2023/05/29 04:13:00;;;;;;;4.68;2.85;;;11.70;99.90;;;;;;5013962;28;20175;-84
2023/05/29 04:15:26;;;;;;;6.53;3.13;;;11.80;99.90;;;;;;5014062;28;20210;-84
2023/05/29 04:17:52;;;;;;;9.05;2.72;;;11.80;99.90;;;;;;5014091;28;20612;-84
2023/05/29 04:20:18;;;;;;;6.70;2.38;;;11.80;99.90;;;;;;5016795;28;20183;-84
2023/05/29 04:22:44;;;;;;;8.82;2.75;;;11.90;99.90;;;;;;5016404;28;20189;-83
2023/05/29 04:25:09;;;;;;;5.45;2.60;;;11.90;99.90;;;;;;5016649;28;20537;-84
2023/05/29 04:27:37;;;;;;;4.03;2.40;;;11.90;99.90;;;;;;5018168;28;20532;-84
2023/05/29 04:30:05;;;;;;;5.80;2.47;;;11.90;99.90;;;;;;5016520;28;20179;-84
2023/05/29 04:32:30;;;;;;;5.07;2.60;;;12.00;99.90;;;;;;5017915;28;20556;-85
2023/05/29 04:34:56;;;;;;;4.80;2.30;;;12.00;99.90;;;;;;5016596;28;20218;-85
2023/05/29 04:37:28;;;;;;;4.85;2.67;;;12.00;99.90;;;;;;5017380;28;20164;-84
2023/05/29 04:39:56;;;;;;;5.93;2.70;;;12.00;99.90;;;;;;5016383;28;20194;-84
2023/05/29 04:42:22;;;;;;;5.40;2.65;;;12.10;99.90;;;;;;5016405;28;20182;-84
2023/05/29 04:44:49;;;;;;;5.82;2.63;;;12.10;99.90;;;;;;5016487;28;20186;-83
2023/05/29 04:47:15;;;;;;;7.05;2.67;;;12.10;99.90;;;;;;5013112;28;20259;-84
2023/05/29 04:49:41;;;;;;;5.95;2.42;;;12.20;99.90;;;;;;5008279;28;20175;-84
2023/05/29 04:52:07;;;;;;;4.35;2.30;;;12.20;99.90;;;;;;5005487;28;20254;-84
2023/05/29 04:54:34;;;;;;;4.97;2.80;;;12.30;99.90;;;;;;5008086;28;20178;-83
2023/05/29 04:57:00;;;;;;;9.93;2.72;;;12.30;99.90;;;;;;5011698;28;20178;-84
2023/05/29 04:59:26;;;;;;;8.52;2.80;;;12.30;99.90;;;;;;5016138;28;20167;-84
2023/05/29 05:01:51;;;;;;;6.00;2.50;;;12.50;99.90;;;;;;5002139;28;20191;-84
2023/05/29 05:04:17;;;;;;;5.50;2.40;;;12.70;99.90;;;;;;5006522;28;20190;-83
2023/05/29 05:06:44;;;;;;;7.43;2.30;;;12.80;99.90;;;;;;5006726;28;20565;-84
2023/05/29 05:09:09;;;;;;;7.28;2.67;;;12.90;99.90;;;;;;5013011;28;20218;-83
2023/05/29 05:11:36;;;;;;;9.55;2.78;;;13.10;99.90;;;;;;5005746;28;20172;-84
2023/05/29 05:14:02;;;;;;;5.95;2.53;;;13.10;99.90;;;;;;5010238;28;20215;-86
2023/05/29 05:16:28;;;;;;;7.53;2.50;;;13.00;99.90;;;;;;5015667;28;20253;-84
2023/05/29 05:18:53;;;;;;;8.98;2.40;;;13.10;99.90;;;;;;5016902;28;20164;-84
2023/05/29 05:21:19;;;;;;;11.55;2.97;;;13.20;99.90;;;;;;5016911;28;20193;-84
2023/05/29 05:23:45;;;;;;;6.03;2.10;;;13.30;99.90;;;;;;5015356;28;20198;-84
2023/05/29 05:26:11;;;;;;;12.60;2.97;;;13.40;99.90;;;;;;5016625;28;20191;-85
2023/05/29 05:28:37;;;;;;;4.68;2.25;;;13.50;99.90;;;;;;5008075;28;20265;-86
2023/05/29 05:31:03;;;;;;;7.90;2.42;;;13.60;99.90;;;;;;4995659;28;20179;-85
2023/05/29 05:33:28;;;;;;;13.68;3.03;;;13.80;99.90;;;;;;5004596;28;20263;-84
2023/05/29 05:35:54;;;;;;;9.52;2.55;;;13.80;99.90;;;;;;5015416;28;20543;-84
2023/05/29 05:38:20;;;;;;;8.63;2.70;;;13.80;99.90;;;;;;5016516;28;20179;-85
2023/05/29 05:40:46;;;;;;;9.70;2.60;;;13.80;99.90;;;;;;5015416;28;20639;-84
2023/05/29 05:43:12;;;;;;;9.60;2.60;;;13.80;99.90;;;;;;5015465;28;20179;-84
2023/05/29 05:45:41;;;;;;;7.32;2.13;;;13.80;99.90;;;;;;5015004;28;20183;-82
2023/05/29 05:48:08;;;;;;;9.05;2.55;;;13.80;99.90;;;;;;5016147;28;20207;-83
2023/05/29 05:50:34;;;;;;;10.98;2.80;;;13.80;99.90;;;;;;5016343;28;20186;-84
2023/05/29 05:53:00;;;;;;;7.78;2.35;;;13.80;99.90;;;;;;5014697;28;20242;-85
2023/05/29 05:55:27;;;;;;;10.80;2.60;;;13.80;99.90;;;;;;5015159;28;20179;-84
2023/05/29 05:57:54;;;;;;;8.90;2.67;;;13.80;99.90;;;;;;5015887;28;20171;-84
2023/05/29 06:00:19;;;;;;;9.57;2.42;;;13.80;99.90;;;;;;5015987;28;20168;-84
2023/05/29 06:02:45;;;;;;;13.30;2.78;;;13.80;99.90;;;;;;5015452;28;20175;-85
2023/05/29 06:05:11;;;;;;;10.25;2.67;;;13.90;99.90;;;;;;5014917;28;20183;-84
2023/05/29 06:07:37;;;;;;;11.15;2.47;;;13.90;99.90;;;;;;5015213;28;20637;-83
2023/05/29 06:10:04;;;;;;;6.95;2.38;;;13.90;99.90;;;;;;5015623;28;20188;-84
2023/05/29 06:12:30;;;;;;;10.35;2.60;;;13.90;99.90;;;;;;5014760;28;20225;-84
2023/05/29 06:14:55;;;;;;;10.48;2.33;;;13.90;99.90;;;;;;5015917;28;20231;-84
2023/05/29 06:17:23;;;;;;;11.15;3.10;;;14.00;99.90;;;;;;5014149;28;20183;-85
2023/05/29 06:19:49;;;;;;;10.38;2.53;;;14.00;99.90;;;;;;5013315;28;20530;-86
2023/05/29 06:22:15;;;;;;;8.45;2.40;;;14.00;99.90;;;;;;5014448;28;20606;-84
2023/05/29 06:24:41;;;;;;;8.35;2.33;;;14.00;99.90;;;;;;5014320;28;20183;-84
2023/05/29 06:27:07;;;;;;;12.15;2.60;;;14.20;99.90;;;;;;5014489;28;20175;-84
2023/05/29 06:29:33;;;;;;;10.55;2.75;;;14.20;99.90;;;;;;5015409;28;20214;-82
2023/05/29 06:32:00;;;;;;;9.25;2.88;;;14.20;99.90;;;;;;5015600;28;20555;-83
2023/05/29 06:34:26;;;;;;;12.38;2.45;;;14.20;99.90;;;;;;5014217;28;20179;-84
2023/05/29 06:36:51;;;;;;;9.48;2.17;;;14.40;99.90;;;;;;5015484;28;20179;-84
2023/05/29 06:39:18;;;;;;;8.57;2.72;;;14.40;99.90;;;;;;5506786;22;21562;-96
2023/05/29 06:41:43;;;;;;;10.50;2.83;;;14.60;99.90;;;;;;5068636;28;20186;-96
2023/05/29 06:44:09;;;;;;;10.48;2.45;;;14.70;99.90;;;;;;5058473;28;20553;-96
2023/05/29 06:46:35;;;;;;;12.40;2.50;;;14.90;99.90;;;;;;5068238;28;20192;-96
2023/05/29 06:49:01;;;;;;;10.63;2.08;;;15.00;99.90;;;;;;5064668;28;20213;-93
2023/05/29 06:51:26;;;;;;;10.05;2.70;;;15.20;99.90;;;;;;5068994;28;20656;-96
2023/05/29 06:53:56;;;;;;;8.95;2.28;;;15.30;99.90;;;;;;5061381;28;20174;-96
2023/05/29 06:56:22;;;;;;;10.80;2.55;;;15.40;99.90;;;;;;5072562;28;20539;-96
2023/05/29 06:58:47;;;;;;;11.10;2.65;;;15.40;99.90;;;;;;5064100;28;20173;-95
2023/05/29 07:01:16;;;;;;;9.48;2.33;;;15.50;99.90;;;;;;5069472;28;20202;-96
2023/05/29 07:03:43;;;;;;;11.48;2.10;;;15.50;99.90;;;;;;5060709;28;20223;-89
2023/05/29 07:06:08;;;;;;;8.98;2.55;;;15.50;99.90;;;;;;5069149;28;20173;-95
2023/05/29 07:08:34;;;;;;;8.85;2.33;;;15.60;99.90;;;;;;5055751;28;20209;-96
2023/05/29 07:11:02;;;;;;;11.55;2.55;;;15.60;99.90;;;;;;5054772;28;20180;-96
2023/05/29 07:13:28;;;;;;;11.50;3.17;;;15.60;99.90;;;;;;5056734;28;20174;-96
2023/05/29 07:15:59;;;;;;;8.65;2.50;;;15.60;99.90;;;;;;5058727;28;20268;-96
2023/05/29 07:18:25;;;;;;;10.95;2.38;;;15.60;99.90;;;;;;5058419;28;20186;-96
2023/05/29 07:21:10;;;;;;;10.80;2.45;;;15.70;99.90;;;;;;5066906;28;20265;-95
2023/05/29 07:23:35;;;;;;;7.32;2.30;;;15.70;99.90;;;;;;5063314;28;20171;-94
2023/05/29 07:26:01;;;;;;;9.38;2.40;;;15.70;99.90;;;;;;5056686;22;20241;-94
2023/05/29 07:28:27;;;;;;;8.23;2.40;;;15.70;99.90;;;;;;5020708;28;20206;-93
2023/05/29 07:30:56;;;;;;;11.77;2.63;;;15.80;99.90;;;;;;5018393;28;20634;-96
2023/05/29 07:33:22;;;;;;;12.60;2.67;;;15.80;99.90;;;;;;5021515;28;20188;-95
2023/05/29 07:35:48;;;;;;;10.02;2.58;;;15.70;99.90;;;;;;5020877;28;20189;-96
2023/05/29 07:38:14;;;;;;;12.75;2.65;;;15.60;99.90;;;;;;5017898;28;20521;-96
2023/05/29 07:40:40;;;;;;;7.13;2.45;;;15.70;99.90;;;;;;5020707;28;20175;-96
2023/05/29 07:43:06;;;;;;;10.05;2.33;;;16.00;99.90;;;;;;5028733;28;20183;-92
2023/05/29 07:45:32;;;;;;;11.18;2.70;;;16.20;99.90;;;;;;5018877;28;20560;-95
2023/05/29 07:47:57;;;;;;;10.50;2.55;;;16.40;99.90;;;;;;5009837;28;20554;-96
2023/05/29 07:50:23;;;;;;;9.32;2.50;;;16.50;99.90;;;;;;5006186;28;20579;-96
2023/05/29 07:53:04;;;;;;;9.25;2.10;;;16.40;99.90;;;;;;5005941;28;20176;-96
2023/05/29 07:55:35;;;;;;;9.27;2.42;;;16.40;99.90;;;;;;5007713;28;20233;-96
2023/05/29 07:58:02;;;;;;;13.98;2.83;;;16.50;99.90;;;;;;5005267;28;20191;-96
2023/05/29 08:00:28;;;;;;;9.32;2.47;;;16.70;99.90;;;;;;5007002;28;20691;-96
2023/05/29 08:02:54;;;;;;;11.43;2.50;;;16.80;99.90;;;;;;5006769;28;20187;-96
2023/05/29 08:05:20;;;;;;;6.85;1.98;;;17.00;99.90;;;;;;5010564;28;20230;-96
2023/05/29 08:07:48;;;;;;;10.05;2.90;;;17.00;99.90;;;;;;5002096;28;20207;-96
2023/05/29 08:10:14;;;;;;;11.55;2.40;;;17.00;99.90;;;;;;5002626;28;20188;-94
2023/05/29 08:12:40;;;;;;;11.00;2.70;;;17.10;99.90;;;;;;5010475;28;20175;-96
2023/05/29 08:15:07;;;;;;;9.45;2.67;;;17.20;99.90;;;;;;4996365;28;20186;-94
2023/05/29 08:17:33;;;;;;;11.98;2.47;;;17.30;99.90;;;;;;5000023;28;20235;-94
2023/05/29 08:19:59;;;;;;;8.60;2.50;;;17.40;99.90;;;;;;5001934;28;20175;-96
2023/05/29 08:22:29;;;;;;;12.05;2.80;;;17.50;99.90;;;;;;5002147;28;20172;-95
2023/05/29 08:24:55;;;;;;;11.88;2.80;;;17.50;99.90;;;;;;5012140;28;20683;-96
2023/05/29 08:27:21;;;;;;;8.48;2.63;;;17.40;99.90;;;;;;5022792;28;20171;-95
2023/05/29 08:29:47;;;;;;;8.65;2.78;;;17.50;99.90;;;;;;5024803;28;20209;-96
2023/05/29 08:32:21;;;;;;;7.88;2.67;;;17.70;99.90;;;;;;5023768;28;20202;-93
2023/05/29 08:34:46;;;;;;;10.45;2.50;;;17.80;99.90;;;;;;5019843;28;20175;-96
2023/05/29 08:37:13;;;;;;;6.57;2.10;;;17.90;99.90;;;;;;5023264;28;20226;-96
2023/05/29 08:39:42;;;;;;;8.25;2.22;;;17.80;99.90;;;;;;5024623;28;20183;-96
2023/05/29 08:42:12;;;;;;;8.20;2.63;;;17.70;99.90;;;;;;5020610;28;20187;-96
2023/05/29 08:44:47;;;;;;;8.63;2.58;;;17.70;99.90;;;;;;5065746;22;20171;-93
2023/05/29 08:47:20;;;;;;;7.97;2.40;;;17.90;99.90;;;;;;5007251;28;20187;-96
2023/05/29 08:49:52;;;;;;;8.32;2.63;;;18.00;99.90;;;;;;5010395;28;20234;-94
2023/05/29 08:53:18;;;;;;;9.23;2.83;;;18.10;99.90;;;;;;5117950;22;20244;-96
2023/05/29 08:55:55;;;;;;;6.88;1.95;;;17.80;98.90;;;;;;5078215;28;20204;-95
2023/05/29 08:58:38;;;;;;;7.57;2.22;;;18.00;99.90;;;;;;5073266;28;20180;-96
2023/05/29 09:01:04;;;;;;;8.43;2.05;;;18.30;99.90;;;;;;5062257;28;20201;-95
2023/05/29 09:03:30;;;;;;;5.72;2.30;;;18.50;99.40;;;;;;5134727;22;20263;-96
2023/05/29 09:06:00;;;;;;;7.20;2.50;;;18.50;97.20;;;;;;5004103;28;20207;-95
2023/05/29 09:08:28;;;;;;;7.63;2.00;;;18.50;97.70;;;;;;5001390;28;20207;-94
2023/05/29 09:10:55;;;;;;;6.50;2.50;;;18.50;96.50;;;;;;5009334;28;20188;-96
2023/05/29 09:13:28;;;;;;;5.68;2.13;;;18.40;96.30;;;;;;5007281;28;20156;-96
2023/05/29 09:16:02;;;;;;;4.97;1.80;;;18.40;96.60;;;;;;5053213;22;20233;-96
2023/05/29 09:18:32;;;;;;;6.50;2.00;;;18.50;95.60;;;;;;5090674;28;20623;-93
2023/05/29 09:20:59;;;;;;;6.07;2.00;;;18.60;95.40;;;;;;5085850;28;20180;-94
2023/05/29 09:23:34;;;;;;;5.13;2.15;;;18.50;95.60;;;;;;5084917;28;20185;-94
2023/05/29 09:26:04;;;;;;;6.32;2.10;;;18.60;95.30;;;;;;5087579;28;20175;-96
2023/05/29 09:28:31;;;;;;;7.40;2.20;;;18.80;96.40;;;;;;5091829;28;20205;-96
2023/05/29 09:30:57;;;;;;;9.60;2.30;;;19.00;95.20;;;;;;5070698;22;20226;-94
2023/05/29 09:33:59;;;;;;;8.13;2.20;;;19.00;94.00;;;;;;5006229;28;20255;-95
2023/05/29 09:36:25;;;;;;;7.18;1.92;;;18.90;96.10;;;;;;5013815;22;20214;-96
2023/05/29 09:38:51;;;;;;;7.10;2.20;;;19.20;96.10;;;;;;5012435;28;20221;-96
2023/05/29 09:41:22;;;;;;;6.35;2.15;;;19.30;95.00;;;;;;5006997;28;20172;-96
2023/05/29 09:43:54;;;;;;;7.55;2.20;;;19.40;96.20;;;;;;5037242;22;20252;-96
2023/05/29 09:46:20;;;;;;;8.40;2.03;;;19.50;95.40;;;;;;4958945;29;20182;-92
2023/05/29 09:48:47;;;;;;;8.32;1.92;;;19.60;94.40;;;;;;4945893;29;20210;-96
2023/05/29 09:51:23;;;;;;;7.25;2.10;;;19.50;95.00;;;;;;4944950;29;20177;-94
2023/05/29 09:53:51;;;;;;;7.20;1.83;;;19.60;95.60;;;;;;4939959;29;20269;-94
2023/05/29 09:56:17;;;;;;;7.63;1.60;;;19.50;92.80;;;;;;4940613;29;20182;-95
2023/05/29 09:58:47;;;;;;;5.60;1.77;;;19.30;92.80;;;;;;4941962;29;20182;-95
2023/05/29 10:01:24;;;;;;;3.88;1.83;;;19.30;94.00;;;;;;4943829;29;20174;-96
2023/05/29 10:06:21;;;;;;;6.43;1.98;;;19.40;93.60;;;;;;5059956;28;20218;-94
2023/05/29 10:08:49;;;;;;;6.28;2.10;;;19.60;93.70;;;;;;5059339;28;20206;-95
2023/05/29 10:11:21;;;;;;;6.20;2.20;;;19.60;93.50;;;;;;5066162;28;20275;-96
2023/05/29 10:13:57;;;;;;;5.85;2.00;;;19.60;93.30;;;;;;5061165;28;20177;-94
2023/05/29 10:16:35;;;;;;;6.65;2.10;;;19.70;92.80;;;;;;5066068;28;20173;-95
2023/05/29 10:19:07;;;;;;;5.88;2.00;;;19.80;93.20;;;;;;5111072;22;20264;-96
2023/05/29 10:21:36;;;;;;;7.60;2.25;;;19.90;93.50;;;;;;5083010;28;20172;-96
2023/05/29 10:24:08;;;;;;;8.18;2.25;;;20.10;95.30;;;;;;5063094;28;20177;-90
2023/05/29 10:26:43;;;;;;;5.93;1.83;;;20.20;93.80;;;;;;5059686;28;20235;-95
2023/05/29 10:29:37;;;;;;;6.40;2.05;;;20.10;93.00;;;;;;5054847;28;20209;-90
2023/05/29 10:32:18;;;;;;;5.65;1.95;;;20.10;93.90;;;;;;5059996;28;20185;-93
2023/05/29 10:35:16;;;;;;;9.35;2.47;;;20.20;92.80;;;;;;5059312;28;20217;-94
2023/05/29 10:37:55;;;;;;;6.88;1.98;;;20.00;94.60;;;;;;5259094;22;20679;-95
2023/05/29 10:40:27;;;;;;;11.65;2.17;;;20.30;94.20;;;;;;5060272;28;20181;-96
2023/05/29 10:42:57;;;;;;;6.45;1.98;;;20.30;91.70;;;;;;5068043;28;20174;-96
2023/05/29 10:45:32;;;;;;;6.65;2.20;;;20.40;94.20;;;;;;5067907;28;20178;-96
2023/05/29 10:48:07;;;;;;;7.38;2.47;;;20.40;91.50;;;;;;5147373;22;20678;-94
2023/05/29 10:50:36;;;;;;;9.45;2.42;;;20.60;91.60;;;;;;5072084;28;20677;-96
2023/05/29 10:53:02;;;;;;;6.07;1.92;;;20.50;91.90;;;;;;5063266;28;20216;-96
2023/05/29 10:55:38;;;;;;;6.82;2.30;;;20.40;92.20;;;;;;5067949;28;20201;-94
2023/05/29 10:58:13;;;;;;;4.80;2.30;;;20.50;91.90;;;;;;5068659;28;20177;-95
2023/05/29 11:00:46;;;;;;;5.97;2.30;;;20.50;93.30;;;;;;5073145;28;20252;-96
2023/05/29 11:03:25;;;;;;;7.53;2.20;;;20.60;92.40;;;;;;5128141;22;20246;-96
2023/05/29 11:06:10;;;;;;;6.03;1.90;;;20.70;93.70;;;;;;5072323;28;20185;-96
2023/05/29 11:09:10;;;;;;;6.90;2.22;;;20.90;91.70;;;;;;5590548;22;20233;-96
2023/05/29 11:11:45;;;;;;;8.10;1.92;;;20.90;92.90;;;;;;5078313;28;20169;-95
2023/05/29 11:14:47;;;;;;;5.60;2.40;;;20.90;92.70;;;;;;5078418;28;20223;-96
2023/05/29 11:17:55;;;;;;;4.85;2.45;;;21.00;91.10;;;;;;5078417;28;20181;-95
2023/05/29 11:21:10;;;;;;;6.03;2.30;;;21.20;91.10;;;;;;5078275;28;20193;-96
2023/05/29 11:27:28;;;;;;;9.93;2.53;;;20.80;91.10;;;;;;5077074;28;20211;-95
2023/05/29 11:30:31;;;;;;;7.55;2.22;;;20.70;90.80;;;;;;4981260;28;20208;-96
2023/05/29 11:33:01;;;;;;;8.07;2.22;;;20.40;90.90;;;;;;4985472;22;20315;-95
2023/05/29 11:35:34;;;;;;;6.40;2.30;;;20.10;90.70;;;;;;5060436;28;20185;-92
2023/05/29 11:38:04;;;;;;;5.85;2.00;;;20.00;91.20;;;;;;5065801;28;20176;-95
2023/05/29 11:40:34;;;;;;;7.07;2.40;;;20.10;92.30;;;;;;5088343;28;20181;-94
2023/05/29 11:43:13;;;;;;;6.32;2.45;;;20.20;91.00;;;;;;5085470;28;20231;-93
2023/05/29 11:45:43;;;;;;;9.05;2.42;;;20.40;91.00;;;;;;5086852;28;20195;-93
2023/05/29 11:48:13;;;;;;;6.43;2.70;;;20.50;90.90;;;;;;5087311;28;20193;-96
2023/05/29 11:50:46;;;;;;;4.88;1.90;;;20.30;90.80;;;;;;5060280;28;20589;-94
2023/05/29 11:53:13;;;;;;;6.18;2.17;;;20.00;91.20;;;;;;5058669;28;20704;-95
2023/05/29 11:55:45;;;;;;;6.28;2.15;;;20.00;91.30;;;;;;5065957;28;20173;-93
2023/05/29 11:58:16;;;;;;;5.15;2.03;;;19.90;91.70;;;;;;5059719;28;20189;-96
2023/05/29 12:00:46;;;;;;;5.28;2.03;;;20.00;92.70;;;;;;5067235;28;20178;-96
2023/05/29 12:03:13;;;;;;;7.05;2.35;;;20.30;91.60;;;;;;5059045;28;20181;-91
2023/05/29 12:05:57;;;;;;;5.93;2.13;;;20.50;91.20;;;;;;5066334;28;20181;-93
2023/05/29 12:08:24;;;;;;;6.90;2.50;;;20.70;92.00;;;;;;5052854;28;20225;-95
2023/05/29 12:10:53;;;;;;;8.35;2.42;;;20.80;90.90;;;;;;5060729;28;20194;-95
2023/05/29 12:13:19;;;;;;;5.85;2.15;;;20.90;90.10;;;;;;5062734;28;20196;-96
2023/05/29 12:15:48;;;;;;;4.55;1.92;;;21.00;90.90;;;;;;5061994;28;20187;-92
2023/05/29 12:18:17;;;;;;;7.35;2.33;;;21.00;88.50;;;;;;5061445;28;20173;-96
2023/05/29 12:20:43;;;;;;;5.88;2.00;;;21.10;90.10;;;;;;5088783;28;20185;-96
2023/05/29 12:23:09;;;;;;;7.00;2.35;;;21.20;87.50;;;;;;5063602;28;20535;-92
2023/05/29 12:25:36;;;;;;;5.80;2.35;;;21.20;84.80;;;;;;5072939;28;20208;-95
2023/05/29 12:28:03;;;;;;;5.25;1.95;;;21.10;86.80;;;;;;5058064;28;20218;-96
2023/05/29 12:30:36;;;;;;;7.43;2.47;;;20.80;89.30;;;;;;5063190;28;20546;-96
2023/05/29 12:33:02;;;;;;;6.85;1.98;;;20.50;90.60;;;;;;5059141;28;20304;-95
2023/05/29 12:35:29;;;;;;;8.00;2.35;;;20.70;91.00;;;;;;5056946;28;20205;-96
2023/05/29 12:37:58;;;;;;;6.82;2.22;;;20.60;86.50;;;;;;5057195;28;20630;-96
2023/05/29 12:40:25;;;;;;;2.80;1.50;;;20.40;88.80;;;;;;5071113;28;20174;-95
2023/05/29 12:43:05;;;;;;;5.43;1.98;;;20.40;90.20;;;;;;5057916;28;20516;-92
2023/05/29 12:45:33;;;;;;;5.93;2.30;;;20.60;87.50;;;;;;5058185;28;20170;-93
2023/05/29 12:48:03;;;;;;;3.85;2.13;;;20.90;86.90;;;;;;5058820;28;20647;-95
2023/05/29 12:50:30;;;;;;;5.78;2.00;;;21.30;87.00;;;;;;5059210;28;20178;-94
2023/05/29 12:53:13;;;;;;;4.93;2.15;;;21.30;86.50;;;;;;5059017;28;20486;-91
2023/05/29 12:55:41;;;;;;;7.55;2.45;;;21.30;83.70;;;;;;5057745;28;20182;-93
2023/05/29 12:58:21;;;;;;;4.45;2.10;;;21.40;88.00;;;;;;5057813;28;20174;-96
2023/05/29 13:00:47;;;;;;;3.25;1.83;;;21.80;88.60;;;;;;5057394;28;20178;-94
2023/05/29 13:03:20;;;;;;;5.82;1.92;;;22.10;89.80;;;;;;5057323;28;20235;-94
2023/05/29 13:05:46;;;;;;;7.65;2.17;;;22.30;84.70;;;;;;5058232;28;20241;-92